sensor_id;sensor_type;location;lat;lon;timestamp;P1;durP1;ratioP1;P2;durP2;ratioP2
44925;SDS011;30662;51.210;7.656;2022-12-18T00:00:31;5.60;;;3.95;;
44925;SDS011;30662;51.210;7.656;2022-12-18T00:02:57;3.58;;;3.25;;
44925;SDS011;30662;51.210;7.656;2022-12-18T00:05:23;4.80;;;3.53;;
44925;SDS011;30662;51.210;7.656;2022-12-18T00:07:49;8.32;;;3.83;;
44925;SDS011;30662;51.210;7.656;2022-12-18T00:10:15;5.15;;;3.75;;
44925;SDS011;30662;51.210;7.656;2022-12-18T00:12:41;5.18;;;3.90;;
44925;SDS011;30662;51.210;7.656;2022-12-18T00:15:10;6.68;;;3.85;;
44925;SDS011;30662;51.210;7.656;2022-12-18T00:17:36;3.92;;;3.50;;
44925;SDS011;30662;51.210;7.656;2022-12-18T00:20:02;6.15;;;3.80;;
44925;SDS011;30662;51.210;7.656;2022-12-18T00:22:28;5.22;;;3.90;;
44925;SDS011;30662;51.210;7.656;2022-12-18T00:24:54;3.42;;;3.10;;
44925;SDS011;30662;51.210;7.656;2022-12-18T00:27:20;5.38;;;3.00;;
44925;SDS011;30662;51.210;7.656;2022-12-18T00:29:46;4.45;;;3.22;;
44925;SDS011;30662;51.210;7.656;2022-12-18T00:32:13;5.60;;;3.63;;
44925;SDS011;30662;51.210;7.656;2022-12-18T00:34:39;4.70;;;3.28;;
44925;SDS011;30662;51.210;7.656;2022-12-18T00:37:05;4.35;;;3.40;;
44925;SDS011;30662;51.210;7.656;2022-12-18T00:39:31;5.20;;;3.20;;
44925;SDS011;30662;51.210;7.656;2022-12-18T00:41:57;5.18;;;3.53;;
44925;SDS011;30662;51.210;7.656;2022-12-18T00:44:42;4.47;;;3.40;;
44925;SDS011;30662;51.210;7.656;2022-12-18T00:47:08;4.40;;;3.05;;
44925;SDS011;30662;51.210;7.656;2022-12-18T00:49:34;5.10;;;3.83;;
44925;SDS011;30662;51.210;7.656;2022-12-18T00:52:00;5.05;;;3.75;;
44925;SDS011;30662;51.210;7.656;2022-12-18T00:54:26;4.72;;;3.63;;
44925;SDS011;30662;51.210;7.656;2022-12-18T00:56:52;4.47;;;3.50;;
44925;SDS011;30662;51.210;7.656;2022-12-18T00:59:18;4.55;;;3.22;;
44925;SDS011;30662;51.210;7.656;2022-12-18T01:01:44;4.30;;;3.28;;
44925;SDS011;30662;51.210;7.656;2022-12-18T01:04:11;3.90;;;3.50;;
44925;SDS011;30662;51.210;7.656;2022-12-18T01:06:37;4.03;;;3.45;;
44925;SDS011;30662;51.210;7.656;2022-12-18T01:09:03;4.28;;;3.28;;
44925;SDS011;30662;51.210;7.656;2022-12-18T01:11:30;4.35;;;3.28;;
44925;SDS011;30662;51.210;7.656;2022-12-18T01:13:56;6.03;;;3.60;;
44925;SDS011;30662;51.210;7.656;2022-12-18T01:16:22;5.32;;;4.80;;
44925;SDS011;30662;51.210;7.656;2022-12-18T01:18:51;5.93;;;4.25;;
44925;SDS011;30662;51.210;7.656;2022-12-18T01:21:18;6.07;;;4.28;;
44925;SDS011;30662;51.210;7.656;2022-12-18T01:23:44;4.45;;;3.60;;
44925;SDS011;30662;51.210;7.656;2022-12-18T01:26:10;4.95;;;3.90;;
44925;SDS011;30662;51.210;7.656;2022-12-18T01:28:38;5.45;;;3.67;;
44925;SDS011;30662;51.210;7.656;2022-12-18T01:31:25;6.03;;;3.80;;
44925;SDS011;30662;51.210;7.656;2022-12-18T01:33:54;4.10;;;3.40;;
44925;SDS011;30662;51.210;7.656;2022-12-18T01:36:26;4.35;;;3.95;;
44925;SDS011;30662;51.210;7.656;2022-12-18T01:38:56;5.75;;;4.18;;
44925;SDS011;30662;51.210;7.656;2022-12-18T01:41:23;5.68;;;3.60;;
44925;SDS011;30662;51.210;7.656;2022-12-18T01:43:53;5.47;;;3.95;;
44925;SDS011;30662;51.210;7.656;2022-12-18T01:46:22;4.72;;;4.15;;
44925;SDS011;30662;51.210;7.656;2022-12-18T01:48:53;5.30;;;4.30;;
44925;SDS011;30662;51.210;7.656;2022-12-18T01:51:27;4.60;;;3.53;;
44925;SDS011;30662;51.210;7.656;2022-12-18T01:53:55;6.03;;;3.90;;
44925;SDS011;30662;51.210;7.656;2022-12-18T01:56:22;6.07;;;4.00;;
44925;SDS011;30662;51.210;7.656;2022-12-18T02:01:28;5.38;;;4.00;;
44925;SDS011;30662;51.210;7.656;2022-12-18T02:03:56;4.80;;;3.50;;
44925;SDS011;30662;51.210;7.656;2022-12-18T02:06:44;5.20;;;3.95;;
44925;SDS011;30662;51.210;7.656;2022-12-18T02:09:13;5.72;;;4.40;;
44925;SDS011;30662;51.210;7.656;2022-12-18T02:15:00;4.47;;;3.58;;
44925;SDS011;30662;51.210;7.656;2022-12-18T02:17:37;4.13;;;3.67;;
44925;SDS011;30662;51.210;7.656;2022-12-18T02:28:46;3.45;;;3.13;;
44925;SDS011;30662;51.210;7.656;2022-12-18T02:31:21;4.53;;;3.03;;
44925;SDS011;30662;51.210;7.656;2022-12-18T02:33:51;5.05;;;3.42;;
44925;SDS011;30662;51.210;7.656;2022-12-18T02:36:20;3.92;;;3.40;;
44925;SDS011;30662;51.210;7.656;2022-12-18T02:38:47;3.33;;;3.03;;
44925;SDS011;30662;51.210;7.656;2022-12-18T02:41:13;5.32;;;3.45;;
44925;SDS011;30662;51.210;7.656;2022-12-18T02:44:06;4.03;;;3.25;;
44925;SDS011;30662;51.210;7.656;2022-12-18T02:46:33;3.92;;;3.53;;
44925;SDS011;30662;51.210;7.656;2022-12-18T02:49:06;4.05;;;3.15;;
44925;SDS011;30662;51.210;7.656;2022-12-18T02:51:39;4.60;;;4.13;;
44925;SDS011;30662;51.210;7.656;2022-12-18T02:54:11;6.70;;;4.03;;
44925;SDS011;30662;51.210;7.656;2022-12-18T02:56:47;5.15;;;3.13;;
44925;SDS011;30662;51.210;7.656;2022-12-18T02:59:22;4.50;;;3.53;;
44925;SDS011;30662;51.210;7.656;2022-12-18T03:02:19;4.32;;;3.20;;
44925;SDS011;30662;51.210;7.656;2022-12-18T03:10:22;5.55;;;3.60;;
44925;SDS011;30662;51.210;7.656;2022-12-18T03:12:59;6.40;;;3.70;;
44925;SDS011;30662;51.210;7.656;2022-12-18T03:15:51;4.45;;;3.97;;
44925;SDS011;30662;51.210;7.656;2022-12-18T03:21:00;4.78;;;3.47;;
44925;SDS011;30662;51.210;7.656;2022-12-18T03:23:32;4.22;;;3.38;;
44925;SDS011;30662;51.210;7.656;2022-12-18T03:26:04;7.00;;;4.30;;
44925;SDS011;30662;51.210;7.656;2022-12-18T03:28:34;4.55;;;3.40;;
44925;SDS011;30662;51.210;7.656;2022-12-18T03:31:04;4.85;;;3.60;;
44925;SDS011;30662;51.210;7.656;2022-12-18T03:36:09;6.18;;;4.05;;
44925;SDS011;30662;51.210;7.656;2022-12-18T03:38:35;5.97;;;4.15;;
44925;SDS011;30662;51.210;7.656;2022-12-18T03:46:24;4.72;;;3.55;;
44925;SDS011;30662;51.210;7.656;2022-12-18T03:48:52;4.15;;;3.50;;
44925;SDS011;30662;51.210;7.656;2022-12-18T03:54:43;3.90;;;3.08;;
44925;SDS011;30662;51.210;7.656;2022-12-18T03:57:18;4.20;;;3.65;;
44925;SDS011;30662;51.210;7.656;2022-12-18T03:59:47;6.22;;;3.85;;
44925;SDS011;30662;51.210;7.656;2022-12-18T04:02:16;5.00;;;3.72;;
44925;SDS011;30662;51.210;7.656;2022-12-18T04:04:43;5.47;;;3.67;;
44925;SDS011;30662;51.210;7.656;2022-12-18T04:07:12;4.60;;;3.58;;
44925;SDS011;30662;51.210;7.656;2022-12-18T04:09:39;5.10;;;3.58;;
44925;SDS011;30662;51.210;7.656;2022-12-18T04:12:08;4.60;;;3.42;;
44925;SDS011;30662;51.210;7.656;2022-12-18T04:14:34;4.65;;;3.67;;
44925;SDS011;30662;51.210;7.656;2022-12-18T04:17:01;4.63;;;3.47;;
44925;SDS011;30662;51.210;7.656;2022-12-18T04:19:28;3.90;;;3.50;;
44925;SDS011;30662;51.210;7.656;2022-12-18T04:21:54;4.75;;;3.75;;
44925;SDS011;30662;51.210;7.656;2022-12-18T04:24:20;4.10;;;3.63;;
44925;SDS011;30662;51.210;7.656;2022-12-18T04:26:46;6.32;;;3.88;;
44925;SDS011;30662;51.210;7.656;2022-12-18T04:29:12;5.95;;;4.05;;
44925;SDS011;30662;51.210;7.656;2022-12-18T04:31:38;4.88;;;3.95;;
44925;SDS011;30662;51.210;7.656;2022-12-18T04:34:03;6.15;;;4.28;;
44925;SDS011;30662;51.210;7.656;2022-12-18T04:36:29;5.25;;;4.43;;
44925;SDS011;30662;51.210;7.656;2022-12-18T04:38:55;7.72;;;4.90;;
44925;SDS011;30662;51.210;7.656;2022-12-18T04:41:21;4.65;;;3.70;;
44925;SDS011;30662;51.210;7.656;2022-12-18T04:43:47;5.25;;;3.90;;
44925;SDS011;30662;51.210;7.656;2022-12-18T04:46:13;4.45;;;3.80;;
44925;SDS011;30662;51.210;7.656;2022-12-18T04:48:39;5.03;;;3.95;;
44925;SDS011;30662;51.210;7.656;2022-12-18T04:51:04;5.35;;;4.13;;
44925;SDS011;30662;51.210;7.656;2022-12-18T04:53:31;5.22;;;4.22;;
44925;SDS011;30662;51.210;7.656;2022-12-18T04:56:04;5.63;;;4.15;;
44925;SDS011;30662;51.210;7.656;2022-12-18T04:58:35;5.72;;;4.03;;
44925;SDS011;30662;51.210;7.656;2022-12-18T05:01:01;5.97;;;4.18;;
44925;SDS011;30662;51.210;7.656;2022-12-18T05:03:27;5.75;;;4.55;;
44925;SDS011;30662;51.210;7.656;2022-12-18T05:05:53;6.00;;;4.35;;
44925;SDS011;30662;51.210;7.656;2022-12-18T05:08:19;5.40;;;4.55;;
44925;SDS011;30662;51.210;7.656;2022-12-18T05:10:45;7.93;;;5.28;;
44925;SDS011;30662;51.210;7.656;2022-12-18T05:13:11;6.45;;;5.35;;
44925;SDS011;30662;51.210;7.656;2022-12-18T05:15:37;7.43;;;5.40;;
44925;SDS011;30662;51.210;7.656;2022-12-18T05:18:03;5.30;;;4.18;;
44925;SDS011;30662;51.210;7.656;2022-12-18T05:20:29;5.03;;;3.63;;
44925;SDS011;30662;51.210;7.656;2022-12-18T05:22:56;5.80;;;4.80;;
44925;SDS011;30662;51.210;7.656;2022-12-18T05:25:22;5.20;;;4.35;;
44925;SDS011;30662;51.210;7.656;2022-12-18T05:27:49;5.35;;;3.97;;
44925;SDS011;30662;51.210;7.656;2022-12-18T05:30:15;5.50;;;3.70;;
44925;SDS011;30662;51.210;7.656;2022-12-18T05:32:41;5.70;;;3.97;;
44925;SDS011;30662;51.210;7.656;2022-12-18T05:35:08;7.20;;;4.03;;
44925;SDS011;30662;51.210;7.656;2022-12-18T05:37:35;4.95;;;4.20;;
44925;SDS011;30662;51.210;7.656;2022-12-18T05:40:08;5.60;;;4.35;;
44925;SDS011;30662;51.210;7.656;2022-12-18T05:42:35;6.70;;;4.18;;
44925;SDS011;30662;51.210;7.656;2022-12-18T05:45:02;5.75;;;4.00;;
44925;SDS011;30662;51.210;7.656;2022-12-18T05:47:30;5.15;;;4.22;;
44925;SDS011;30662;51.210;7.656;2022-12-18T05:49:56;7.47;;;5.25;;
44925;SDS011;30662;51.210;7.656;2022-12-18T05:52:21;7.55;;;4.82;;
44925;SDS011;30662;51.210;7.656;2022-12-18T05:54:47;7.53;;;4.60;;
44925;SDS011;30662;51.210;7.656;2022-12-18T05:57:13;7.57;;;4.80;;
44925;SDS011;30662;51.210;7.656;2022-12-18T05:59:39;6.72;;;4.70;;
44925;SDS011;30662;51.210;7.656;2022-12-18T06:02:05;5.45;;;4.10;;
44925;SDS011;30662;51.210;7.656;2022-12-18T06:04:31;6.10;;;4.38;;
44925;SDS011;30662;51.210;7.656;2022-12-18T06:06:57;7.50;;;4.10;;
44925;SDS011;30662;51.210;7.656;2022-12-18T06:09:23;8.50;;;5.40;;
44925;SDS011;30662;51.210;7.656;2022-12-18T06:11:49;9.35;;;4.78;;
44925;SDS011;30662;51.210;7.656;2022-12-18T06:14:17;5.60;;;3.70;;
44925;SDS011;30662;51.210;7.656;2022-12-18T06:16:43;5.82;;;4.28;;
44925;SDS011;30662;51.210;7.656;2022-12-18T06:19:12;5.75;;;4.13;;
44925;SDS011;30662;51.210;7.656;2022-12-18T06:21:40;7.47;;;4.47;;
44925;SDS011;30662;51.210;7.656;2022-12-18T06:24:06;6.10;;;4.45;;
44925;SDS011;30662;51.210;7.656;2022-12-18T06:26:33;7.80;;;4.50;;
44925;SDS011;30662;51.210;7.656;2022-12-18T06:28:59;5.32;;;3.95;;
44925;SDS011;30662;51.210;7.656;2022-12-18T06:31:25;4.63;;;3.97;;
44925;SDS011;30662;51.210;7.656;2022-12-18T06:33:52;6.28;;;4.00;;
44925;SDS011;30662;51.210;7.656;2022-12-18T06:36:18;7.50;;;4.40;;
44925;SDS011;30662;51.210;7.656;2022-12-18T06:38:45;9.77;;;5.20;;
44925;SDS011;30662;51.210;7.656;2022-12-18T06:41:12;6.43;;;4.32;;
44925;SDS011;30662;51.210;7.656;2022-12-18T06:43:39;5.75;;;4.18;;
44925;SDS011;30662;51.210;7.656;2022-12-18T06:46:06;7.57;;;5.10;;
44925;SDS011;30662;51.210;7.656;2022-12-18T06:48:32;10.65;;;6.38;;
44925;SDS011;30662;51.210;7.656;2022-12-18T06:50:58;6.70;;;4.50;;
44925;SDS011;30662;51.210;7.656;2022-12-18T06:53:26;7.15;;;4.15;;
44925;SDS011;30662;51.210;7.656;2022-12-18T06:55:58;7.57;;;4.60;;
44925;SDS011;30662;51.210;7.656;2022-12-18T06:58:31;6.05;;;5.00;;
44925;SDS011;30662;51.210;7.656;2022-12-18T07:01:01;5.85;;;4.78;;
44925;SDS011;30662;51.210;7.656;2022-12-18T07:03:33;5.90;;;4.18;;
44925;SDS011;30662;51.210;7.656;2022-12-18T07:05:59;7.60;;;5.07;;
44925;SDS011;30662;51.210;7.656;2022-12-18T07:08:25;7.60;;;4.63;;
44925;SDS011;30662;51.210;7.656;2022-12-18T07:10:51;7.28;;;4.93;;
44925;SDS011;30662;51.210;7.656;2022-12-18T07:13:21;6.80;;;4.63;;
44925;SDS011;30662;51.210;7.656;2022-12-18T07:15:47;8.65;;;4.60;;
44925;SDS011;30662;51.210;7.656;2022-12-18T07:18:13;8.57;;;4.85;;
44925;SDS011;30662;51.210;7.656;2022-12-18T07:20:40;6.90;;;4.88;;
44925;SDS011;30662;51.210;7.656;2022-12-18T07:23:06;7.50;;;6.10;;
44925;SDS011;30662;51.210;7.656;2022-12-18T07:25:35;7.05;;;5.10;;
44925;SDS011;30662;51.210;7.656;2022-12-18T07:28:02;7.50;;;4.90;;
44925;SDS011;30662;51.210;7.656;2022-12-18T07:30:29;6.97;;;4.47;;
44925;SDS011;30662;51.210;7.656;2022-12-18T07:32:55;6.65;;;5.05;;
44925;SDS011;30662;51.210;7.656;2022-12-18T07:35:21;5.90;;;4.05;;
44925;SDS011;30662;51.210;7.656;2022-12-18T07:37:50;5.78;;;5.15;;
44925;SDS011;30662;51.210;7.656;2022-12-18T07:40:16;6.95;;;5.07;;
44925;SDS011;30662;51.210;7.656;2022-12-18T07:42:42;6.05;;;4.22;;
44925;SDS011;30662;51.210;7.656;2022-12-18T07:45:08;5.63;;;4.22;;
44925;SDS011;30662;51.210;7.656;2022-12-18T07:47:34;6.43;;;4.47;;
44925;SDS011;30662;51.210;7.656;2022-12-18T07:50:02;6.65;;;4.47;;
44925;SDS011;30662;51.210;7.656;2022-12-18T07:52:29;7.30;;;4.80;;
44925;SDS011;30662;51.210;7.656;2022-12-18T07:54:56;7.45;;;4.72;;
44925;SDS011;30662;51.210;7.656;2022-12-18T07:57:22;5.85;;;4.60;;
44925;SDS011;30662;51.210;7.656;2022-12-18T08:00:07;5.90;;;4.28;;
44925;SDS011;30662;51.210;7.656;2022-12-18T08:02:34;7.03;;;4.25;;
44925;SDS011;30662;51.210;7.656;2022-12-18T08:05:00;7.18;;;3.97;;
44925;SDS011;30662;51.210;7.656;2022-12-18T08:07:26;6.80;;;4.30;;
44925;SDS011;30662;51.210;7.656;2022-12-18T08:09:52;5.18;;;3.80;;
44925;SDS011;30662;51.210;7.656;2022-12-18T08:12:18;6.65;;;5.07;;
44925;SDS011;30662;51.210;7.656;2022-12-18T08:14:44;6.90;;;5.05;;
44925;SDS011;30662;51.210;7.656;2022-12-18T08:17:10;7.13;;;4.10;;
44925;SDS011;30662;51.210;7.656;2022-12-18T08:19:36;6.10;;;4.15;;
44925;SDS011;30662;51.210;7.656;2022-12-18T08:22:02;6.43;;;4.07;;
44925;SDS011;30662;51.210;7.656;2022-12-18T08:24:28;6.80;;;5.00;;
44925;SDS011;30662;51.210;7.656;2022-12-18T08:26:54;5.35;;;4.20;;
44925;SDS011;30662;51.210;7.656;2022-12-18T08:32:05;5.10;;;4.07;;
44925;SDS011;30662;51.210;7.656;2022-12-18T08:34:31;7.75;;;4.28;;
44925;SDS011;30662;51.210;7.656;2022-12-18T08:36:57;5.57;;;3.80;;
44925;SDS011;30662;51.210;7.656;2022-12-18T08:39:23;5.03;;;3.90;;
44925;SDS011;30662;51.210;7.656;2022-12-18T08:41:49;5.53;;;4.10;;
44925;SDS011;30662;51.210;7.656;2022-12-18T08:44:35;5.72;;;4.47;;
44925;SDS011;30662;51.210;7.656;2022-12-18T08:47:05;6.80;;;4.03;;
44925;SDS011;30662;51.210;7.656;2022-12-18T08:49:32;6.28;;;4.28;;
44925;SDS011;30662;51.210;7.656;2022-12-18T08:51:58;4.75;;;3.28;;
44925;SDS011;30662;51.210;7.656;2022-12-18T08:54:24;5.15;;;3.85;;
44925;SDS011;30662;51.210;7.656;2022-12-18T08:56:51;5.78;;;3.70;;
44925;SDS011;30662;51.210;7.656;2022-12-18T08:59:17;4.78;;;3.97;;
44925;SDS011;30662;51.210;7.656;2022-12-18T09:01:46;4.82;;;3.45;;
44925;SDS011;30662;51.210;7.656;2022-12-18T09:04:12;6.20;;;3.60;;
44925;SDS011;30662;51.210;7.656;2022-12-18T09:06:39;5.35;;;4.13;;
44925;SDS011;30662;51.210;7.656;2022-12-18T09:09:06;6.70;;;4.25;;
44925;SDS011;30662;51.210;7.656;2022-12-18T09:11:32;4.60;;;3.58;;
44925;SDS011;30662;51.210;7.656;2022-12-18T09:13:59;4.68;;;3.42;;
44925;SDS011;30662;51.210;7.656;2022-12-18T09:16:26;5.10;;;3.60;;
44925;SDS011;30662;51.210;7.656;2022-12-18T09:18:58;6.32;;;3.80;;
44925;SDS011;30662;51.210;7.656;2022-12-18T09:21:29;4.13;;;3.50;;
44925;SDS011;30662;51.210;7.656;2022-12-18T09:24:01;5.10;;;4.15;;
44925;SDS011;30662;51.210;7.656;2022-12-18T09:26:27;4.25;;;3.40;;
44925;SDS011;30662;51.210;7.656;2022-12-18T09:28:53;5.80;;;3.75;;
44925;SDS011;30662;51.210;7.656;2022-12-18T09:31:20;4.82;;;3.63;;
44925;SDS011;30662;51.210;7.656;2022-12-18T09:33:47;4.70;;;4.18;;
44925;SDS011;30662;51.210;7.656;2022-12-18T09:36:14;4.10;;;3.63;;
44925;SDS011;30662;51.210;7.656;2022-12-18T09:38:42;4.55;;;3.33;;
44925;SDS011;30662;51.210;7.656;2022-12-18T09:44:09;3.90;;;3.30;;
44925;SDS011;30662;51.210;7.656;2022-12-18T09:46:44;5.65;;;3.70;;
44925;SDS011;30662;51.210;7.656;2022-12-18T09:49:31;4.22;;;3.15;;
44925;SDS011;30662;51.210;7.656;2022-12-18T09:52:02;3.80;;;2.92;;
44925;SDS011;30662;51.210;7.656;2022-12-18T09:54:40;4.45;;;3.75;;
44925;SDS011;30662;51.210;7.656;2022-12-18T09:59:50;4.68;;;2.83;;
44925;SDS011;30662;51.210;7.656;2022-12-18T10:02:37;6.93;;;3.00;;
44925;SDS011;30662;51.210;7.656;2022-12-18T10:12:38;4.75;;;3.30;;
44925;SDS011;30662;51.210;7.656;2022-12-18T10:21:05;3.47;;;2.90;;
44925;SDS011;30662;51.210;7.656;2022-12-18T10:23:40;4.88;;;3.45;;
44925;SDS011;30662;51.210;7.656;2022-12-18T10:26:13;5.28;;;3.28;;
44925;SDS011;30662;51.210;7.656;2022-12-18T10:31:15;4.60;;;3.17;;
44925;SDS011;30662;51.210;7.656;2022-12-18T10:33:43;4.88;;;3.33;;
44925;SDS011;30662;51.210;7.656;2022-12-18T10:36:10;4.80;;;3.60;;
44925;SDS011;30662;51.210;7.656;2022-12-18T10:38:37;4.43;;;2.75;;
44925;SDS011;30662;51.210;7.656;2022-12-18T10:41:46;4.28;;;3.05;;
44925;SDS011;30662;51.210;7.656;2022-12-18T10:44:10;3.72;;;3.05;;
44925;SDS011;30662;51.210;7.656;2022-12-18T10:46:40;3.70;;;2.90;;
44925;SDS011;30662;51.210;7.656;2022-12-18T10:49:17;3.80;;;2.97;;
44925;SDS011;30662;51.210;7.656;2022-12-18T10:51:45;3.83;;;3.00;;
44925;SDS011;30662;51.210;7.656;2022-12-18T10:54:23;4.32;;;2.80;;
44925;SDS011;30662;51.210;7.656;2022-12-18T10:56:50;3.88;;;3.20;;
44925;SDS011;30662;51.210;7.656;2022-12-18T10:59:17;3.53;;;2.50;;
44925;SDS011;30662;51.210;7.656;2022-12-18T11:01:47;3.35;;;2.70;;
44925;SDS011;30662;51.210;7.656;2022-12-18T11:04:32;5.20;;;3.00;;
44925;SDS011;30662;51.210;7.656;2022-12-18T11:07:08;3.72;;;2.58;;
44925;SDS011;30662;51.210;7.656;2022-12-18T11:09:36;4.47;;;3.35;;
44925;SDS011;30662;51.210;7.656;2022-12-18T11:12:04;4.15;;;3.08;;
44925;SDS011;30662;51.210;7.656;2022-12-18T11:17:19;6.47;;;4.65;;
44925;SDS011;30662;51.210;7.656;2022-12-18T11:19:52;3.85;;;2.95;;
44925;SDS011;30662;51.210;7.656;2022-12-18T11:22:21;4.15;;;3.15;;
44925;SDS011;30662;51.210;7.656;2022-12-18T11:24:52;4.65;;;3.47;;
44925;SDS011;30662;51.210;7.656;2022-12-18T11:28:01;3.88;;;3.08;;
44925;SDS011;30662;51.210;7.656;2022-12-18T11:30:45;4.30;;;3.08;;
44925;SDS011;30662;51.210;7.656;2022-12-18T11:33:13;4.65;;;3.22;;
44925;SDS011;30662;51.210;7.656;2022-12-18T11:38:18;4.57;;;2.97;;
44925;SDS011;30662;51.210;7.656;2022-12-18T11:43:44;5.13;;;3.38;;
44925;SDS011;30662;51.210;7.656;2022-12-18T11:46:26;3.42;;;2.88;;
44925;SDS011;30662;51.210;7.656;2022-12-18T11:49:12;6.70;;;3.25;;
44925;SDS011;30662;51.210;7.656;2022-12-18T11:51:49;5.85;;;3.78;;
44925;SDS011;30662;51.210;7.656;2022-12-18T11:54:21;4.78;;;3.30;;
44925;SDS011;30662;51.210;7.656;2022-12-18T11:56:55;4.88;;;3.72;;
44925;SDS011;30662;51.210;7.656;2022-12-18T11:59:32;4.85;;;3.38;;
44925;SDS011;30662;51.210;7.656;2022-12-18T12:05:11;8.57;;;3.45;;
44925;SDS011;30662;51.210;7.656;2022-12-18T12:07:48;5.10;;;3.60;;
44925;SDS011;30662;51.210;7.656;2022-12-18T12:13:19;5.00;;;3.58;;
44925;SDS011;30662;51.210;7.656;2022-12-18T12:22:18;4.57;;;3.17;;
44925;SDS011;30662;51.210;7.656;2022-12-18T12:35:29;7.18;;;4.50;;
44925;SDS011;30662;51.210;7.656;2022-12-18T12:38:12;5.70;;;4.50;;
44925;SDS011;30662;51.210;7.656;2022-12-18T12:40:49;5.78;;;4.40;;
44925;SDS011;30662;51.210;7.656;2022-12-18T12:46:18;6.80;;;4.53;;
44925;SDS011;30662;51.210;7.656;2022-12-18T12:48:49;8.00;;;4.88;;
44925;SDS011;30662;51.210;7.656;2022-12-18T12:51:22;7.07;;;5.45;;
44925;SDS011;30662;51.210;7.656;2022-12-18T12:53:51;7.22;;;4.70;;
44925;SDS011;30662;51.210;7.656;2022-12-18T12:56:20;6.95;;;4.88;;
44925;SDS011;30662;51.210;7.656;2022-12-18T13:08:02;10.27;;;5.70;;
44925;SDS011;30662;51.210;7.656;2022-12-18T13:10:39;8.32;;;5.32;;
44925;SDS011;30662;51.210;7.656;2022-12-18T13:13:10;11.45;;;7.30;;
44925;SDS011;30662;51.210;7.656;2022-12-18T13:15:47;11.02;;;5.32;;
44925;SDS011;30662;51.210;7.656;2022-12-18T13:18:28;9.23;;;6.53;;
44925;SDS011;30662;51.210;7.656;2022-12-18T13:23:32;8.93;;;6.95;;
44925;SDS011;30662;51.210;7.656;2022-12-18T13:34:16;8.60;;;7.00;;
44925;SDS011;30662;51.210;7.656;2022-12-18T13:36:56;9.85;;;7.57;;
44925;SDS011;30662;51.210;7.656;2022-12-18T13:39:42;11.85;;;7.93;;
44925;SDS011;30662;51.210;7.656;2022-12-18T13:44:55;13.38;;;7.43;;
44925;SDS011;30662;51.210;7.656;2022-12-18T13:49:50;13.77;;;8.55;;
44925;SDS011;30662;51.210;7.656;2022-12-18T13:54:52;16.13;;;9.02;;
44925;SDS011;30662;51.210;7.656;2022-12-18T13:57:30;13.70;;;8.70;;
44925;SDS011;30662;51.210;7.656;2022-12-18T13:59:59;11.60;;;8.30;;
44925;SDS011;30662;51.210;7.656;2022-12-18T14:02:40;11.82;;;8.00;;
44925;SDS011;30662;51.210;7.656;2022-12-18T14:05:23;12.77;;;8.45;;
44925;SDS011;30662;51.210;7.656;2022-12-18T14:08:03;14.02;;;8.90;;
44925;SDS011;30662;51.210;7.656;2022-12-18T14:10:31;14.95;;;9.18;;
44925;SDS011;30662;51.210;7.656;2022-12-18T14:13:32;14.48;;;8.85;;
44925;SDS011;30662;51.210;7.656;2022-12-18T14:16:03;15.05;;;9.40;;
44925;SDS011;30662;51.210;7.656;2022-12-18T14:18:52;14.15;;;10.10;;
44925;SDS011;30662;51.210;7.656;2022-12-18T14:21:28;17.42;;;9.60;;
44925;SDS011;30662;51.210;7.656;2022-12-18T14:26:47;12.70;;;8.98;;
44925;SDS011;30662;51.210;7.656;2022-12-18T14:29:26;15.98;;;9.95;;
44925;SDS011;30662;51.210;7.656;2022-12-18T14:32:13;14.38;;;9.55;;
44925;SDS011;30662;51.210;7.656;2022-12-18T14:34:47;15.00;;;9.57;;
44925;SDS011;30662;51.210;7.656;2022-12-18T14:37:25;17.27;;;12.02;;
44925;SDS011;30662;51.210;7.656;2022-12-18T14:39:58;14.32;;;9.93;;
44925;SDS011;30662;51.210;7.656;2022-12-18T14:42:35;19.33;;;10.45;;
44925;SDS011;30662;51.210;7.656;2022-12-18T14:50:38;18.17;;;10.75;;
44925;SDS011;30662;51.210;7.656;2022-12-18T14:53:04;14.48;;;10.00;;
44925;SDS011;30662;51.210;7.656;2022-12-18T14:55:30;15.68;;;10.30;;
44925;SDS011;30662;51.210;7.656;2022-12-18T14:57:56;12.65;;;9.90;;
44925;SDS011;30662;51.210;7.656;2022-12-18T15:00:23;16.48;;;11.45;;
44925;SDS011;30662;51.210;7.656;2022-12-18T15:02:54;16.88;;;11.50;;
44925;SDS011;30662;51.210;7.656;2022-12-18T15:05:26;17.58;;;11.07;;
44925;SDS011;30662;51.210;7.656;2022-12-18T15:07:56;15.13;;;10.53;;
44925;SDS011;30662;51.210;7.656;2022-12-18T15:17:59;20.33;;;12.75;;
44925;SDS011;30662;51.210;7.656;2022-12-18T15:20:26;18.38;;;12.23;;
44925;SDS011;30662;51.210;7.656;2022-12-18T15:22:52;19.05;;;12.15;;
44925;SDS011;30662;51.210;7.656;2022-12-18T15:25:29;20.52;;;11.95;;
44925;SDS011;30662;51.210;7.656;2022-12-18T15:27:59;17.48;;;11.73;;
44925;SDS011;30662;51.210;7.656;2022-12-18T15:30:25;18.13;;;12.27;;
44925;SDS011;30662;51.210;7.656;2022-12-18T15:32:52;17.77;;;12.38;;
44925;SDS011;30662;51.210;7.656;2022-12-18T15:35:38;18.10;;;11.43;;
44925;SDS011;30662;51.210;7.656;2022-12-18T15:38:10;20.75;;;13.10;;
44925;SDS011;30662;51.210;7.656;2022-12-18T15:40:36;19.75;;;12.50;;
44925;SDS011;30662;51.210;7.656;2022-12-18T15:43:04;18.17;;;12.60;;
44925;SDS011;30662;51.210;7.656;2022-12-18T15:45:49;20.27;;;12.63;;
44925;SDS011;30662;51.210;7.656;2022-12-18T15:48:18;18.75;;;12.73;;
44925;SDS011;30662;51.210;7.656;2022-12-18T15:50:47;24.08;;;15.40;;
44925;SDS011;30662;51.210;7.656;2022-12-18T15:53:13;21.40;;;14.60;;
44925;SDS011;30662;51.210;7.656;2022-12-18T15:55:39;19.55;;;12.90;;
44925;SDS011;30662;51.210;7.656;2022-12-18T15:58:26;18.08;;;12.18;;
44925;SDS011;30662;51.210;7.656;2022-12-18T16:00:52;21.17;;;12.90;;
44925;SDS011;30662;51.210;7.656;2022-12-18T16:03:21;21.77;;;13.43;;
44925;SDS011;30662;51.210;7.656;2022-12-18T16:05:48;22.40;;;13.75;;
44925;SDS011;30662;51.210;7.656;2022-12-18T16:08:14;19.60;;;13.55;;
44925;SDS011;30662;51.210;7.656;2022-12-18T16:10:40;24.65;;;14.35;;
44925;SDS011;30662;51.210;7.656;2022-12-18T16:13:09;23.70;;;14.10;;
44925;SDS011;30662;51.210;7.656;2022-12-18T16:15:37;22.13;;;14.00;;
44925;SDS011;30662;51.210;7.656;2022-12-18T16:18:03;25.15;;;15.27;;
44925;SDS011;30662;51.210;7.656;2022-12-18T16:20:29;20.75;;;15.00;;
44925;SDS011;30662;51.210;7.656;2022-12-18T16:22:54;23.63;;;15.23;;
44925;SDS011;30662;51.210;7.656;2022-12-18T16:25:21;25.50;;;15.55;;
44925;SDS011;30662;51.210;7.656;2022-12-18T16:27:53;21.80;;;14.60;;
44925;SDS011;30662;51.210;7.656;2022-12-18T16:30:21;23.77;;;15.25;;
44925;SDS011;30662;51.210;7.656;2022-12-18T16:32:49;25.05;;;15.45;;
44925;SDS011;30662;51.210;7.656;2022-12-18T16:35:15;24.58;;;14.93;;
44925;SDS011;30662;51.210;7.656;2022-12-18T16:37:42;25.42;;;17.33;;
44925;SDS011;30662;51.210;7.656;2022-12-18T16:40:09;26.05;;;16.40;;
44925;SDS011;30662;51.210;7.656;2022-12-18T16:42:38;26.38;;;16.65;;
44925;SDS011;30662;51.210;7.656;2022-12-18T16:45:05;25.48;;;17.15;;
44925;SDS011;30662;51.210;7.656;2022-12-18T16:47:33;33.38;;;20.25;;
44925;SDS011;30662;51.210;7.656;2022-12-18T16:49:59;28.27;;;17.10;;
44925;SDS011;30662;51.210;7.656;2022-12-18T16:52:25;28.10;;;16.92;;
44925;SDS011;30662;51.210;7.656;2022-12-18T16:54:52;26.83;;;17.33;;
44925;SDS011;30662;51.210;7.656;2022-12-18T16:57:18;29.25;;;18.55;;
44925;SDS011;30662;51.210;7.656;2022-12-18T16:59:46;27.83;;;17.85;;
44925;SDS011;30662;51.210;7.656;2022-12-18T17:02:17;27.15;;;18.50;;
44925;SDS011;30662;51.210;7.656;2022-12-18T17:07:17;27.83;;;17.90;;
44925;SDS011;30662;51.210;7.656;2022-12-18T17:09:43;29.95;;;18.98;;
44925;SDS011;30662;51.210;7.656;2022-12-18T17:12:09;27.15;;;18.40;;
44925;SDS011;30662;51.210;7.656;2022-12-18T17:14:35;28.25;;;17.85;;
44925;SDS011;30662;51.210;7.656;2022-12-18T17:17:02;26.05;;;17.77;;